sensor_id;sensor_type;location;lat;lon;timestamp;pressure;altitude;pressure_sealevel;temperature;humidity
28626;BME280;18905;42.668;23.364;2023-02-05T00:01:00;95135.59;;;-2.53;100.00
28626;BME280;18905;42.668;23.364;2023-02-05T00:03:25;95121.31;;;-2.52;100.00
28626;BME280;18905;42.668;23.364;2023-02-05T00:05:51;95148.22;;;-2.55;100.00
28626;BME280;18905;42.668;23.364;2023-02-05T00:08:16;95134.31;;;-2.50;100.00
28626;BME280;18905;42.668;23.364;2023-02-05T00:10:41;95134.81;;;-2.65;100.00
28626;BME280;18905;42.668;23.364;2023-02-05T00:13:07;95139.50;;;-2.55;100.00
28626;BME280;18905;42.668;23.364;2023-02-05T00:15:34;95129.19;;;-2.68;100.00
28626;BME280;18905;42.668;23.364;2023-02-05T00:18:00;95131.97;;;-2.47;100.00
28626;BME280;18905;42.668;23.364;2023-02-05T00:20:25;95119.13;;;-2.55;100.00
28626;BME280;18905;42.668;23.364;2023-02-05T00:22:50;95151.53;;;-2.48;100.00
28626;BME280;18905;42.668;23.364;2023-02-05T00:25:16;95136.13;;;-2.23;100.00
28626;BME280;18905;42.668;23.364;2023-02-05T00:27:41;95153.31;;;-2.37;100.00
28626;BME280;18905;42.668;23.364;2023-02-05T00:30:08;95148.75;;;-2.41;100.00
28626;BME280;18905;42.668;23.364;2023-02-05T00:32:33;95136.75;;;-2.60;100.00
28626;BME280;18905;42.668;23.364;2023-02-05T00:34:59;95155.88;;;-2.42;100.00
28626;BME280;18905;42.668;23.364;2023-02-05T00:37:24;95158.47;;;-2.30;100.00
28626;BME280;18905;42.668;23.364;2023-02-05T00:39:50;95156.47;;;-2.40;100.00
28626;BME280;18905;42.668;23.364;2023-02-05T00:42:15;95156.81;;;-2.20;100.00
28626;BME280;18905;42.668;23.364;2023-02-05T00:44:40;95146.06;;;-2.30;100.00
28626;BME280;18905;42.668;23.364;2023-02-05T00:47:06;95171.09;;;-2.49;100.00
28626;BME280;18905;42.668;23.364;2023-02-05T00:49:31;95162.34;;;-2.49;100.00
28626;BME280;18905;42.668;23.364;2023-02-05T00:51:57;95169.16;;;-2.65;100.00
28626;BME280;18905;42.668;23.364;2023-02-05T00:54:22;95175.78;;;-2.51;100.00
28626;BME280;18905;42.668;23.364;2023-02-05T00:56:47;95158.13;;;-2.62;100.00
28626;BME280;18905;42.668;23.364;2023-02-05T00:59:13;95151.72;;;-2.66;100.00
28626;BME280;18905;42.668;23.364;2023-02-05T01:01:38;95177.44;;;-2.61;100.00
28626;BME280;18905;42.668;23.364;2023-02-05T01:04:03;95169.84;;;-2.58;100.00
28626;BME280;18905;42.668;23.364;2023-02-05T01:06:29;95140.56;;;-2.68;100.00
28626;BME280;18905;42.668;23.364;2023-02-05T01:08:54;95171.09;;;-2.49;100.00
28626;BME280;18905;42.668;23.364;2023-02-05T01:11:20;95177.00;;;-2.70;100.00
28626;BME280;18905;42.668;23.364;2023-02-05T01:13:45;95196.06;;;-2.68;100.00
28626;BME280;18905;42.668;23.364;2023-02-05T01:16:10;95156.28;;;-2.61;100.00
28626;BME280;18905;42.668;23.364;2023-02-05T01:18:36;95189.66;;;-2.32;100.00
28626;BME280;18905;42.668;23.364;2023-02-05T01:21:02;95186.13;;;-2.49;100.00
28626;BME280;18905;42.668;23.364;2023-02-05T01:23:27;95184.47;;;-2.67;100.00
28626;BME280;18905;42.668;23.364;2023-02-05T01:25:53;95164.19;;;-3.01;100.00
28626;BME280;18905;42.668;23.364;2023-02-05T01:28:18;95181.53;;;-3.05;100.00
28626;BME280;18905;42.668;23.364;2023-02-05T01:30:48;95191.75;;;-2.97;100.00
28626;BME280;18905;42.668;23.364;2023-02-05T01:33:14;95174.31;;;-3.09;100.00
28626;BME280;18905;42.668;23.364;2023-02-05T01:35:40;95191.50;;;-2.84;100.00
28626;BME280;18905;42.668;23.364;2023-02-05T01:38:07;95178.63;;;-2.80;100.00
28626;BME280;18905;42.668;23.364;2023-02-05T01:40:32;95180.59;;;-2.76;100.00
28626;BME280;18905;42.668;23.364;2023-02-05T01:42:57;95187.53;;;-2.58;100.00
28626;BME280;18905;42.668;23.364;2023-02-05T01:47:58;95203.44;;;-2.81;100.00
28626;BME280;18905;42.668;23.364;2023-02-05T01:50:38;95207.13;;;-2.71;100.00
28626;BME280;18905;42.668;23.364;2023-02-05T01:53:09;95181.31;;;-3.03;100.00
28626;BME280;18905;42.668;23.364;2023-02-05T01:55:38;95212.06;;;-2.74;100.00
28626;BME280;18905;42.668;23.364;2023-02-05T01:58:05;95173.50;;;-2.59;100.00
28626;BME280;18905;42.668;23.364;2023-02-05T02:00:30;95205.38;;;-2.54;100.00
28626;BME280;18905;42.668;23.364;2023-02-05T02:02:57;95190.38;;;-2.48;100.00
28626;BME280;18905;42.668;23.364;2023-02-05T02:05:23;95215.38;;;-2.67;100.00
28626;BME280;18905;42.668;23.364;2023-02-05T02:07:49;95180.22;;;-2.79;100.00
28626;BME280;18905;42.668;23.364;2023-02-05T02:10:16;95209.56;;;-2.81;100.00
28626;BME280;18905;42.668;23.364;2023-02-05T02:12:44;95216.09;;;-2.72;100.00
28626;BME280;18905;42.668;23.364;2023-02-05T02:15:16;95217.19;;;-2.68;100.00
28626;BME280;18905;42.668;23.364;2023-02-05T02:17:45;95213.47;;;-2.83;100.00
28626;BME280;18905;42.668;23.364;2023-02-05T02:20:15;95208.88;;;-2.99;100.00
28626;BME280;18905;42.668;23.364;2023-02-05T02:23:09;95215.06;;;-2.94;100.00
28626;BME280;18905;42.668;23.364;2023-02-05T02:26:06;95204.84;;;-3.02;100.00
28626;BME280;18905;42.668;23.364;2023-02-05T02:28:44;95216.78;;;-2.99;100.00
28626;BME280;18905;42.668;23.364;2023-02-05T02:31:18;95231.81;;;-3.00;100.00
28626;BME280;18905;42.668;23.364;2023-02-05T02:34:16;95225.75;;;-3.12;100.00
28626;BME280;18905;42.668;23.364;2023-02-05T02:39:16;95213.94;;;-3.21;100.00
28626;BME280;18905;42.668;23.364;2023-02-05T02:44:22;95229.44;;;-3.24;100.00
28626;BME280;18905;42.668;23.364;2023-02-05T02:46:53;95231.38;;;-3.31;100.00
28626;BME280;18905;42.668;23.364;2023-02-05T02:49:27;95241.84;;;-3.13;100.00
28626;BME280;18905;42.668;23.364;2023-02-05T02:51:56;95214.59;;;-3.25;100.00
28626;BME280;18905;42.668;23.364;2023-02-05T02:54:24;95231.59;;;-3.33;100.00
28626;BME280;18905;42.668;23.364;2023-02-05T02:56:51;95230.44;;;-3.25;100.00
28626;BME280;18905;42.668;23.364;2023-02-05T02:59:21;95250.56;;;-3.13;100.00
28626;BME280;18905;42.668;23.364;2023-02-05T03:01:52;95207.28;;;-3.46;100.00
28626;BME280;18905;42.668;23.364;2023-02-05T03:04:33;95226.22;;;-3.38;100.00
28626;BME280;18905;42.668;23.364;2023-02-05T03:09:42;95255.59;;;-3.23;100.00
28626;BME280;18905;42.668;23.364;2023-02-05T03:12:11;95236.97;;;-3.51;100.00
28626;BME280;18905;42.668;23.364;2023-02-05T03:14:36;95241.09;;;-3.43;100.00
28626;BME280;18905;42.668;23.364;2023-02-05T03:17:03;95267.09;;;-3.29;100.00
28626;BME280;18905;42.668;23.364;2023-02-05T03:19:28;95265.59;;;-3.36;100.00
28626;BME280;18905;42.668;23.364;2023-02-05T03:21:58;95250.84;;;-3.67;100.00
28626;BME280;18905;42.668;23.364;2023-02-05T03:24:25;95253.34;;;-3.72;100.00
28626;BME280;18905;42.668;23.364;2023-02-05T03:26:50;95249.59;;;-3.53;100.00
28626;BME280;18905;42.668;23.364;2023-02-05T03:29:20;95268.78;;;-3.34;100.00
28626;BME280;18905;42.668;23.364;2023-02-05T03:32:58;95253.19;;;-3.36;100.00
28626;BME280;18905;42.668;23.364;2023-02-05T03:35:25;95269.50;;;-3.27;100.00
28626;BME280;18905;42.668;23.364;2023-02-05T03:38:32;95258.16;;;-3.69;100.00
28626;BME280;18905;42.668;23.364;2023-02-05T03:41:10;95270.84;;;-3.48;100.00
28626;BME280;18905;42.668;23.364;2023-02-05T03:43:57;95268.66;;;-3.51;100.00
28626;BME280;18905;42.668;23.364;2023-02-05T03:46:35;95270.34;;;-3.68;100.00
28626;BME280;18905;42.668;23.364;2023-02-05T03:49:10;95255.44;;;-3.51;100.00
28626;BME280;18905;42.668;23.364;2023-02-05T03:51:49;95266.56;;;-3.60;100.00
28626;BME280;18905;42.668;23.364;2023-02-05T03:54:30;95244.66;;;-3.61;100.00
28626;BME280;18905;42.668;23.364;2023-02-05T03:57:04;95274.97;;;-3.52;100.00
28626;BME280;18905;42.668;23.364;2023-02-05T03:59:33;95279.75;;;-3.72;100.00
28626;BME280;18905;42.668;23.364;2023-02-05T04:02:00;95269.44;;;-3.62;100.00
28626;BME280;18905;42.668;23.364;2023-02-05T04:04:29;95288.84;;;-3.56;100.00
28626;BME280;18905;42.668;23.364;2023-02-05T04:06:54;95280.69;;;-3.55;100.00
28626;BME280;18905;42.668;23.364;2023-02-05T04:09:20;95289.91;;;-3.75;100.00
28626;BME280;18905;42.668;23.364;2023-02-05T04:11:45;95263.75;;;-3.88;100.00
28626;BME280;18905;42.668;23.364;2023-02-05T04:14:10;95290.44;;;-3.67;100.00
28626;BME280;18905;42.668;23.364;2023-02-05T04:16:36;95259.47;;;-3.89;100.00
28626;BME280;18905;42.668;23.364;2023-02-05T04:19:01;95281.41;;;-3.89;100.00
28626;BME280;18905;42.668;23.364;2023-02-05T04:21:27;95253.16;;;-4.00;100.00
28626;BME280;18905;42.668;23.364;2023-02-05T04:23:52;95269.97;;;-3.71;100.00
28626;BME280;18905;42.668;23.364;2023-02-05T04:26:17;95279.75;;;-4.01;100.00
28626;BME280;18905;42.668;23.364;2023-02-05T04:28:43;95279.41;;;-4.05;100.00
28626;BME280;18905;42.668;23.364;2023-02-05T04:31:10;95309.91;;;-3.79;100.00
28626;BME280;18905;42.668;23.364;2023-02-05T04:33:37;95281.78;;;-4.03;100.00
28626;BME280;18905;42.668;23.364;2023-02-05T04:36:03;95288.13;;;-4.22;100.00
28626;BME280;18905;42.668;23.364;2023-02-05T04:38:28;95276.50;;;-4.33;100.00
28626;BME280;18905;42.668;23.364;2023-02-05T04:40:54;95304.84;;;-3.81;100.00
28626;BME280;18905;42.668;23.364;2023-02-05T04:43:19;95306.84;;;-4.12;100.00
28626;BME280;18905;42.668;23.364;2023-02-05T04:45:45;95318.06;;;-3.99;100.00
28626;BME280;18905;42.668;23.364;2023-02-05T04:48:10;95316.03;;;-4.33;100.00
28626;BME280;18905;42.668;23.364;2023-02-05T04:50:37;95320.59;;;-4.22;100.00
28626;BME280;18905;42.668;23.364;2023-02-05T04:53:03;95315.53;;;-4.41;100.00
28626;BME280;18905;42.668;23.364;2023-02-05T04:55:30;95326.41;;;-4.20;100.00
28626;BME280;18905;42.668;23.364;2023-02-05T04:57:55;95323.84;;;-4.08;100.00
28626;BME280;18905;42.668;23.364;2023-02-05T05:00:21;95321.59;;;-4.05;100.00
28626;BME280;18905;42.668;23.364;2023-02-05T05:02:46;95325.16;;;-3.99;100.00
28626;BME280;18905;42.668;23.364;2023-02-05T05:05:11;95316.34;;;-4.23;100.00
28626;BME280;18905;42.668;23.364;2023-02-05T05:07:37;95337.50;;;-4.11;100.00
28626;BME280;18905;42.668;23.364;2023-02-05T05:10:03;95335.97;;;-3.89;100.00
28626;BME280;18905;42.668;23.364;2023-02-05T05:12:32;95328.00;;;-4.01;100.00
28626;BME280;18905;42.668;23.364;2023-02-05T05:14:57;95347.03;;;-4.28;100.00
28626;BME280;18905;42.668;23.364;2023-02-05T05:17:22;95340.91;;;-3.93;100.00
28626;BME280;18905;42.668;23.364;2023-02-05T05:19:48;95338.00;;;-4.21;100.00
28626;BME280;18905;42.668;23.364;2023-02-05T05:22:13;95323.56;;;-4.00;100.00
28626;BME280;18905;42.668;23.364;2023-02-05T05:24:38;95338.38;;;-4.35;100.00
28626;BME280;18905;42.668;23.364;2023-02-05T05:27:04;95341.53;;;-4.09;100.00
28626;BME280;18905;42.668;23.364;2023-02-05T05:29:29;95355.34;;;-4.13;100.00
28626;BME280;18905;42.668;23.364;2023-02-05T05:31:55;95339.09;;;-4.10;100.00
28626;BME280;18905;42.668;23.364;2023-02-05T05:34:20;95339.09;;;-4.10;100.00
28626;BME280;18905;42.668;23.364;2023-02-05T05:36:46;95354.25;;;-4.06;100.00
28626;BME280;18905;42.668;23.364;2023-02-05T05:39:12;95380.31;;;-3.98;100.00
28626;BME280;18905;42.668;23.364;2023-02-05T05:41:57;95374.09;;;-4.03;100.00
28626;BME280;18905;42.668;23.364;2023-02-05T05:44:41;95380.25;;;-4.09;100.00
28626;BME280;18905;42.668;23.364;2023-02-05T05:47:06;95376.97;;;-4.23;100.00
28626;BME280;18905;42.668;23.364;2023-02-05T05:49:32;95392.81;;;-4.05;100.00
28626;BME280;18905;42.668;23.364;2023-02-05T05:51:57;95379.75;;;-4.18;100.00
28626;BME280;18905;42.668;23.364;2023-02-05T05:54:22;95382.75;;;-3.96;100.00
28626;BME280;18905;42.668;23.364;2023-02-05T05:56:48;95391.31;;;-4.01;100.00
28626;BME280;18905;42.668;23.364;2023-02-05T05:59:14;95393.22;;;-3.90;100.00
28626;BME280;18905;42.668;23.364;2023-02-05T06:01:40;95399.97;;;-4.12;100.00
28626;BME280;18905;42.668;23.364;2023-02-05T06:04:05;95395.13;;;-4.15;100.00
28626;BME280;18905;42.668;23.364;2023-02-05T06:06:31;95394.19;;;-4.02;100.00
28626;BME280;18905;42.668;23.364;2023-02-05T06:08:56;95393.88;;;-4.12;100.00
28626;BME280;18905;42.668;23.364;2023-02-05T06:11:22;95414.63;;;-3.80;100.00
28626;BME280;18905;42.668;23.364;2023-02-05T06:13:47;95385.25;;;-4.01;100.00
28626;BME280;18905;42.668;23.364;2023-02-05T06:16:12;95388.03;;;-4.14;100.00
28626;BME280;18905;42.668;23.364;2023-02-05T06:18:38;95416.44;;;-3.98;100.00
28626;BME280;18905;42.668;23.364;2023-02-05T06:21:03;95407.13;;;-3.83;100.00
28626;BME280;18905;42.668;23.364;2023-02-05T06:23:31;95417.47;;;-4.17;100.00
28626;BME280;18905;42.668;23.364;2023-02-05T06:25:57;95422.59;;;-4.04;100.00
28626;BME280;18905;42.668;23.364;2023-02-05T06:28:22;95417.09;;;-4.03;100.00
28626;BME280;18905;42.668;23.364;2023-02-05T06:30:48;95417.25;;;-4.16;100.00
28626;BME280;18905;42.668;23.364;2023-02-05T06:33:13;95438.44;;;-4.04;100.00
28626;BME280;18905;42.668;23.364;2023-02-05T06:35:39;95441.44;;;-3.83;100.00
28626;BME280;18905;42.668;23.364;2023-02-05T06:38:05;95441.88;;;-3.86;100.00
28626;BME280;18905;42.668;23.364;2023-02-05T06:40:31;95432.59;;;-3.88;100.00
28626;BME280;18905;42.668;23.364;2023-02-05T06:42:56;95451.31;;;-3.60;100.00
28626;BME280;18905;42.668;23.364;2023-02-05T06:45:21;95450.47;;;-3.43;100.00
28626;BME280;18905;42.668;23.364;2023-02-05T06:47:47;95459.97;;;-3.71;100.00
28626;BME280;18905;42.668;23.364;2023-02-05T06:50:13;95468.97;;;-3.43;100.00
28626;BME280;18905;42.668;23.364;2023-02-05T06:52:39;95457.31;;;-3.71;100.00
28626;BME280;18905;42.668;23.364;2023-02-05T06:55:04;95465.44;;;-3.55;100.00
28626;BME280;18905;42.668;23.364;2023-02-05T06:57:30;95462.66;;;-3.60;100.00
28626;BME280;18905;42.668;23.364;2023-02-05T06:59:56;95466.06;;;-3.71;100.00
28626;BME280;18905;42.668;23.364;2023-02-05T07:02:22;95442.59;;;-3.79;100.00
28626;BME280;18905;42.668;23.364;2023-02-05T07:04:48;95460.28;;;-3.97;100.00
28626;BME280;18905;42.668;23.364;2023-02-05T07:07:13;95458.41;;;-2.72;100.00
28626;BME280;18905;42.668;23.364;2023-02-05T07:09:41;95424.25;;;-3.56;100.00
28626;BME280;18905;42.668;23.364;2023-02-05T07:12:06;95474.16;;;-3.36;100.00
28626;BME280;18905;42.668;23.364;2023-02-05T07:14:38;95471.03;;;-3.45;100.00
28626;BME280;18905;42.668;23.364;2023-02-05T07:17:03;95476.13;;;-3.02;100.00
28626;BME280;18905;42.668;23.364;2023-02-05T07:19:29;95462.84;;;-3.73;100.00
28626;BME280;18905;42.668;23.364;2023-02-05T07:21:54;95493.56;;;-2.42;100.00
28626;BME280;18905;42.668;23.364;2023-02-05T07:24:19;95508.06;;;-1.64;100.00
28626;BME280;18905;42.668;23.364;2023-02-05T07:26:45;95490.78;;;-2.36;100.00
28626;BME280;18905;42.668;23.364;2023-02-05T07:29:10;95499.72;;;-2.48;100.00
28626;BME280;18905;42.668;23.364;2023-02-05T07:31:36;95482.38;;;-2.33;100.00
28626;BME280;18905;42.668;23.364;2023-02-05T07:34:02;95501.75;;;-1.98;100.00
28626;BME280;18905;42.668;23.364;2023-02-05T07:36:27;95481.59;;;-1.76;100.00
28626;BME280;18905;42.668;23.364;2023-02-05T07:38:53;95508.75;;;-1.69;100.00
28626;BME280;18905;42.668;23.364;2023-02-05T07:41:18;95506.31;;;-1.70;100.00
28626;BME280;18905;42.668;23.364;2023-02-05T07:43:43;95477.63;;;-2.77;100.00
28626;BME280;18905;42.668;23.364;2023-02-05T07:46:11;95507.13;;;-1.07;100.00
28626;BME280;18905;42.668;23.364;2023-02-05T07:48:37;95512.53;;;-1.02;100.00
28626;BME280;18905;42.668;23.364;2023-02-05T07:51:03;95508.00;;;-0.46;100.00
28626;BME280;18905;42.668;23.364;2023-02-05T07:53:29;95520.19;;;-1.17;100.00
28626;BME280;18905;42.668;23.364;2023-02-05T07:55:54;95528.00;;;-0.83;100.00
28626;BME280;18905;42.668;23.364;2023-02-05T07:58:20;95528.81;;;-0.54;100.00
28626;BME280;18905;42.668;23.364;2023-02-05T08:00:45;95532.50;;;-0.11;100.00
28626;BME280;18905;42.668;23.364;2023-02-05T08:03:11;95530.16;;;-0.24;100.00
28626;BME280;18905;42.668;23.364;2023-02-05T08:05:38;95534.63;;;-1.48;100.00
28626;BME280;18905;42.668;23.364;2023-02-05T08:08:03;95526.91;;;-1.49;100.00
28626;BME280;18905;42.668;23.364;2023-02-05T08:10:29;95530.16;;;-0.96;100.00
28626;BME280;18905;42.668;23.364;2023-02-05T08:12:55;95544.28;;;-1.42;100.00
28626;BME280;18905;42.668;23.364;2023-02-05T08:15:20;95534.53;;;-1.99;100.00
28626;BME280;18905;42.668;23.364;2023-02-05T08:17:45;95547.66;;;-1.69;100.00
28626;BME280;18905;42.668;23.364;2023-02-05T08:20:11;95549.47;;;-1.35;100.00
28626;BME280;18905;42.668;23.364;2023-02-05T08:22:38;95544.31;;;-1.65;100.00
28626;BME280;18905;42.668;23.364;2023-02-05T08:25:05;95538.25;;;-1.03;100.00
28626;BME280;18905;42.668;23.364;2023-02-05T08:27:32;95550.56;;;-1.08;100.00
28626;BME280;18905;42.668;23.364;2023-02-05T08:29:57;95549.00;;;-1.21;100.00
28626;BME280;18905;42.668;23.364;2023-02-05T08:32:23;95543.88;;;-0.99;100.00
28626;BME280;18905;42.668;23.364;2023-02-05T08:34:48;95551.69;;;-0.65;100.00
28626;BME280;18905;42.668;23.364;2023-02-05T08:37:14;95550.94;;;-1.28;100.00
28626;BME280;18905;42.668;23.364;2023-02-05T08:39:39;95551.19;;;-1.41;100.00
28626;BME280;18905;42.668;23.364;2023-02-05T08:42:04;95565.00;;;-1.16;100.00
28626;BME280;18905;42.668;23.364;2023-02-05T08:44:30;95557.09;;;-1.62;100.00
28626;BME280;18905;42.668;23.364;2023-02-05T08:46:55;95568.31;;;-1.09;100.00
28626;BME280;18905;42.668;23.364;2023-02-05T08:49:21;95553.97;;;-1.82;100.00
28626;BME280;18905;42.668;23.364;2023-02-05T08:51:47;95555.84;;;-0.97;100.00
28626;BME280;18905;42.668;23.364;2023-02-05T08:54:12;95521.00;;;-1.40;100.00
28626;BME280;18905;42.668;23.364;2023-02-05T08:56:40;95570.78;;;-1.88;100.00
28626;BME280;18905;42.668;23.364;2023-02-05T08:59:06;95575.22;;;-2.11;100.00
28626;BME280;18905;42.668;23.364;2023-02-05T09:01:33;95573.56;;;-1.83;100.00
28626;BME280;18905;42.668;23.364;2023-02-05T09:04:02;95564.56;;;-1.59;100.00
28626;BME280;18905;42.668;23.364;2023-02-05T09:06:28;95581.38;;;-1.65;100.00
28626;BME280;18905;42.668;23.364;2023-02-05T09:08:53;95549.94;;;-1.84;100.00
28626;BME280;18905;42.668;23.364;2023-02-05T09:11:20;95589.44;;;-1.37;100.00
28626;BME280;18905;42.668;23.364;2023-02-05T09:13:46;95561.00;;;-1.99;100.00
28626;BME280;18905;42.668;23.364;2023-02-05T09:16:11;95565.59;;;-1.37;100.00
28626;BME280;18905;42.668;23.364;2023-02-05T09:18:37;95587.22;;;-1.86;100.00
28626;BME280;18905;42.668;23.364;2023-02-05T09:21:06;95573.59;;;-2.24;100.00
28626;BME280;18905;42.668;23.364;2023-02-05T09:23:32;95584.72;;;-1.81;100.00
28626;BME280;18905;42.668;23.364;2023-02-05T09:25:58;95591.97;;;-1.42;100.00
28626;BME280;18905;42.668;23.364;2023-02-05T09:28:23;95566.19;;;-1.81;100.00
28626;BME280;18905;42.668;23.364;2023-02-05T09:30:49;95567.91;;;-1.52;100.00
28626;BME280;18905;42.668;23.364;2023-02-05T09:33:14;95605.00;;;-1.63;100.00
28626;BME280;18905;42.668;23.364;2023-02-05T09:35:40;95591.47;;;-2.08;100.00
28626;BME280;18905;42.668;23.364;2023-02-05T09:38:06;95607.63;;;-1.86;100.00
28626;BME280;18905;42.668;23.364;2023-02-05T09:40:38;95606.38;;;-1.61;100.00
28626;BME280;18905;42.668;23.364;2023-02-05T09:43:22;95609.97;;;-2.19;100.00
28626;BME280;18905;42.668;23.364;2023-02-05T09:46:00;95599.34;;;-2.31;100.00
28626;BME280;18905;42.668;23.364;2023-02-05T09:48:38;95613.34;;;-2.42;100.00
28626;BME280;18905;42.668;23.364;2023-02-05T09:51:08;95579.38;;;-2.56;100.00
28626;BME280;18905;42.668;23.364;2023-02-05T09:53:39;95597.97;;;-2.33;100.00
28626;BME280;18905;42.668;23.364;2023-02-05T09:56:08;95578.47;;;-2.80;100.00
28626;BME280;18905;42.668;23.364;2023-02-05T09:58:40;95612.16;;;-2.16;100.00
28626;BME280;18905;42.668;23.364;2023-02-05T10:01:13;95577.09;;;-2.00;100.00
28626;BME280;18905;42.668;23.364;2023-02-05T10:03:54;95598.94;;;-2.46;100.00
28626;BME280;18905;42.668;23.364;2023-02-05T10:06:45;95610.59;;;-2.65;100.00
28626;BME280;18905;42.668;23.364;2023-02-05T10:15:22;95621.00;;;-2.22;100.00
28626;BME280;18905;42.668;23.364;2023-02-05T10:36:56;95614.19;;;-1.89;100.00
28626;BME280;18905;42.668;23.364;2023-02-05T10:39:24;95588.28;;;-2.69;100.00
28626;BME280;18905;42.668;23.364;2023-02-05T10:42:27;95626.28;;;-2.52;100.00
28626;BME280;18905;42.668;23.364;2023-02-05T10:45:13;95624.44;;;-2.33;100.00
28626;BME280;18905;42.668;23.364;2023-02-05T10:48:00;95620.09;;;-2.46;100.00
28626;BME280;18905;42.668;23.364;2023-02-05T10:52:57;95610.66;;;-2.12;100.00
28626;BME280;18905;42.668;23.364;2023-02-05T10:55:23;95604.13;;;-2.10;100.00
28626;BME280;18905;42.668;23.364;2023-02-05T10:57:48;95593.72;;;-2.23;100.00
28626;BME280;18905;42.668;23.364;2023-02-05T11:00:23;95606.34;;;-1.95;100.00
28626;BME280;18905;42.668;23.364;2023-02-05T11:02:51;95575.25;;;-2.82;100.00
28626;BME280;18905;42.668;23.364;2023-02-05T11:05:36;95610.78;;;-2.48;100.00
28626;BME280;18905;42.668;23.364;2023-02-05T11:08:03;95627.59;;;-2.43;100.00
28626;BME280;18905;42.668;23.364;2023-02-05T11:10:31;95588.13;;;-2.56;100.00
28626;BME280;18905;42.668;23.364;2023-02-05T11:13:04;95634.84;;;-2.38;98.79
28626;BME280;18905;42.668;23.364;2023-02-05T11:15:53;95602.72;;;-2.53;97.74
28626;BME280;18905;42.668;23.364;2023-02-05T11:18:42;95629.97;;;-2.23;96.36
28626;BME280;18905;42.668;23.364;2023-02-05T11:21:08;95630.72;;;-2.34;94.57
28626;BME280;18905;42.668;23.364;2023-02-05T11:23:36;95636.63;;;-1.80;97.51
28626;BME280;18905;42.668;23.364;2023-02-05T11:26:25;95618.78;;;-1.61;93.52
28626;BME280;18905;42.668;23.364;2023-02-05T11:28:52;95605.59;;;-2.14;90.71
28626;BME280;18905;42.668;23.364;2023-02-05T11:31:31;95634.81;;;-2.09;92.78
28626;BME280;18905;42.668;23.364;2023-02-05T11:36:31;95589.25;;;-2.22;92.89
28626;BME280;18905;42.668;23.364;2023-02-05T11:38:57;95585.03;;;-2.12;90.25
28626;BME280;18905;42.668;23.364;2023-02-05T11:41:28;95627.63;;;-1.90;86.51
28626;BME280;18905;42.668;23.364;2023-02-05T11:43:56;95626.16;;;-1.63;88.08
28626;BME280;18905;42.668;23.364;2023-02-05T11:46:25;95611.44;;;-1.48;85.22
28626;BME280;18905;42.668;23.364;2023-02-05T11:48:56;95617.88;;;-1.09;83.32
28626;BME280;18905;42.668;23.364;2023-02-05T11:53:57;95565.28;;;-1.75;75.23
28626;BME280;18905;42.668;23.364;2023-02-05T11:56:23;95616.75;;;-1.36;78.03
28626;BME280;18905;42.668;23.364;2023-02-05T11:59:18;95626.28;;;-1.70;75.27
28626;BME280;18905;42.668;23.364;2023-02-05T12:01:44;95626.28;;;-1.24;77.80
28626;BME280;18905;42.668;23.364;2023-02-05T12:06:52;95614.53;;;-1.39;76.59
28626;BME280;18905;42.668;23.364;2023-02-05T12:09:22;95601.75;;;-1.42;76.24
28626;BME280;18905;42.668;23.364;2023-02-05T12:12:19;95602.56;;;-1.42;79.26
28626;BME280;18905;42.668;23.364;2023-02-05T12:20:32;95620.28;;;-1.54;87.01
28626;BME280;18905;42.668;23.364;2023-02-05T12:28:29;95631.25;;;-1.62;87.65
28626;BME280;18905;42.668;23.364;2023-02-05T12:36:45;95611.75;;;-1.10;88.81
28626;BME280;18905;42.668;23.364;2023-02-05T12:50:01;95632.44;;;-2.40;100.00
28626;BME280;18905;42.668;23.364;2023-02-05T12:57:39;95626.44;;;-2.06;100.00
28626;BME280;18905;42.668;23.364;2023-02-05T13:00:13;95621.88;;;-1.99;100.00
28626;BME280;18905;42.668;23.364;2023-02-05T13:05:37;95621.66;;;-1.74;100.00
28626;BME280;18905;42.668;23.364;2023-02-05T13:08:20;95619.97;;;-2.21;100.00
28626;BME280;18905;42.668;23.364;2023-02-05T13:11:00;95625.09;;;-1.85;100.00
28626;BME280;18905;42.668;23.364;2023-02-05T13:13:35;95627.75;;;-1.85;100.00
28626;BME280;18905;42.668;23.364;2023-02-05T13:16:07;95626.06;;;-1.34;100.00
28626;BME280;18905;42.668;23.364;2023-02-05T13:18:40;95626.03;;;-1.11;100.00
28626;BME280;18905;42.668;23.364;2023-02-05T13:21:12;95618.63;;;-0.86;100.00
28626;BME280;18905;42.668;23.364;2023-02-05T13:24:25;95632.34;;;-0.77;100.00
28626;BME280;18905;42.668;23.364;2023-02-05T13:27:33;95632.59;;;-0.51;100.00
28626;BME280;18905;42.668;23.364;2023-02-05T13:30:42;95621.22;;;-0.35;100.00
28626;BME280;18905;42.668;23.364;2023-02-05T13:33:08;95635.88;;;-0.72;100.00
28626;BME280;18905;42.668;23.364;2023-02-05T13:35:46;95598.75;;;-1.46;100.00
28626;BME280;18905;42.668;23.364;2023-02-05T13:47:22;95608.41;;;-1.63;100.00
28626;BME280;18905;42.668;23.364;2023-02-05T13:58:10;95636.66;;;-1.34;97.09
28626;BME280;18905;42.668;23.364;2023-02-05T14:00:39;95638.38;;;-1.39;93.40
28626;BME280;18905;42.668;23.364;2023-02-05T14:03:07;95646.84;;;4.44;100.00
28626;BME280;18905;42.668;23.364;2023-02-05T14:05:37;95649.50;;;1.20;100.00
28626;BME280;18905;42.668;23.364;2023-02-05T14:08:04;95535.88;;;-0.88;100.00
28626;BME280;18905;42.668;23.364;2023-02-05T14:10:39;95576.91;;;-1.41;100.00
28626;BME280;18905;42.668;23.364;2023-02-05T14:13:15;95646.09;;;-1.26;100.00
28626;BME280;18905;42.668;23.364;2023-02-05T14:15:43;95496.09;;;-2.24;100.00
28626;BME280;18905;42.668;23.364;2023-02-05T14:18:11;95643.94;;;-1.93;100.00
28626;BME280;18905;42.668;23.364;2023-02-05T14:20:42;95645.72;;;-1.87;100.00
28626;BME280;18905;42.668;23.364;2023-02-05T14:23:19;95638.97;;;-2.13;100.00
28626;BME280;18905;42.668;23.364;2023-02-05T14:33:42;95650.16;;;-2.40;100.00
28626;BME280;18905;42.668;23.364;2023-02-05T14:39:05;95647.53;;;-2.58;100.00
28626;BME280;18905;42.668;23.364;2023-02-05T14:41:52;95650.16;;;-2.40;100.00